createdAt,value
2022-09-20T00:01:22.810Z,3.38
2022-09-20T00:03:54.455Z,2.65
2022-09-20T00:06:25.503Z,3.00
2022-09-20T00:08:57.712Z,3.10
2022-09-20T00:11:28.491Z,3.25
2022-09-20T00:13:58.636Z,3.47
2022-09-20T00:16:28.693Z,4.55
2022-09-20T00:18:59.594Z,6.40
2022-09-20T00:21:29.448Z,11.20
2022-09-20T00:23:58.531Z,13.35
2022-09-20T00:26:27.733Z,17.50
2022-09-20T00:28:56.284Z,19.05
2022-09-20T00:31:24.541Z,21.67
2022-09-20T00:34:12.850Z,21.17
2022-09-20T00:36:42.323Z,19.88
2022-09-20T00:39:12.833Z,13.05
2022-09-20T00:41:40.959Z,13.40
2022-09-20T00:44:41.508Z,12.40
2022-09-20T00:47:15.495Z,9.77
2022-09-20T00:49:44.152Z,7.07
2022-09-20T00:52:13.843Z,5.90
2022-09-20T00:54:42.080Z,5.50
2022-09-20T00:57:10.015Z,4.05
2022-09-20T00:59:40.575Z,4.53
2022-09-20T01:02:13.292Z,3.72
2022-09-20T01:04:43.632Z,2.78
2022-09-20T01:07:16.006Z,3.50
2022-09-20T01:09:44.257Z,2.90
2022-09-20T01:16:09.163Z,3.22
2022-09-20T01:18:39.516Z,2.75
2022-09-20T01:21:09.883Z,2.97
2022-09-20T01:23:53.253Z,2.78
2022-09-20T01:26:56.502Z,2.75
2022-09-20T01:29:39.942Z,2.53
2022-09-20T01:32:14.820Z,2.80
2022-09-20T01:34:48.088Z,2.45
2022-09-20T01:37:24.026Z,2.40
2022-09-20T01:40:04.131Z,2.10
2022-09-20T01:42:36.067Z,1.88
2022-09-20T01:45:16.212Z,2.10
2022-09-20T01:47:53.606Z,1.73
2022-09-20T01:50:30.843Z,2.35
2022-09-20T01:53:34.451Z,1.95
2022-09-20T01:56:50.191Z,2.05
2022-09-20T01:59:46.687Z,2.05
2022-09-20T02:02:41.122Z,2.08
2022-09-20T02:05:18.873Z,2.88
2022-09-20T02:08:16.765Z,1.88
2022-09-20T02:11:12.307Z,2.05
2022-09-20T02:14:03.795Z,1.98
2022-09-20T02:16:44.918Z,2.40
2022-09-20T02:19:57.379Z,2.33
2022-09-20T02:22:43.184Z,1.58
2022-09-20T02:25:30.778Z,2.00
2022-09-20T02:28:14.263Z,1.90
2022-09-20T02:30:51.865Z,1.83
2022-09-20T02:33:54.058Z,1.88
2022-09-20T02:36:40.356Z,1.63
2022-09-20T02:39:16.358Z,1.83
2022-09-20T02:41:58.870Z,1.85
2022-09-20T02:44:47.560Z,2.00
2022-09-20T02:47:24.744Z,1.77
2022-09-20T02:50:07.269Z,2.35
2022-09-20T02:52:42.120Z,2.00
2022-09-20T02:55:18.341Z,2.20
2022-09-20T02:57:55.619Z,1.88
2022-09-20T03:00:26.998Z,1.70
2022-09-20T03:03:09.848Z,2.50
2022-09-20T03:05:48.584Z,2.08
2022-09-20T03:08:29.861Z,2.03
2022-09-20T03:11:11.027Z,2.15
2022-09-20T03:13:56.803Z,1.63
2022-09-20T03:16:36.122Z,1.90
2022-09-20T03:19:16.568Z,1.95
2022-09-20T03:21:56.181Z,2.00
2022-09-20T03:24:37.786Z,1.92
2022-09-20T03:27:16.507Z,1.70
2022-09-20T03:29:59.635Z,1.70
2022-09-20T03:35:24.088Z,2.17
2022-09-20T03:38:05.069Z,1.90
2022-09-20T03:41:03.405Z,2.30
2022-09-20T03:43:53.853Z,2.67
2022-09-20T03:46:27.658Z,1.95
2022-09-20T03:49:38.138Z,2.63
2022-09-20T03:52:22.387Z,2.25
2022-09-20T03:55:53.593Z,2.60
2022-09-20T03:58:41.337Z,2.45
2022-09-20T04:01:34.212Z,2.55
2022-09-20T04:04:12.949Z,2.50
2022-09-20T04:07:02.418Z,2.28
2022-09-20T04:09:48.529Z,2.70
2022-09-20T04:12:26.998Z,2.97
2022-09-20T04:15:18.862Z,2.25
2022-09-20T04:17:58.161Z,2.78
2022-09-20T04:20:35.747Z,2.30
2022-09-20T04:23:15.212Z,2.55
2022-09-20T04:25:48.882Z,2.30
2022-09-20T04:28:23.524Z,2.85
2022-09-20T04:30:57.755Z,2.45
2022-09-20T04:33:31.358Z,2.47
2022-09-20T04:36:31.325Z,2.30
2022-09-20T04:39:09.347Z,2.53
2022-09-20T04:42:16.133Z,2.60
2022-09-20T04:45:22.023Z,2.20
2022-09-20T04:48:19.681Z,2.30
2022-09-20T04:51:20.812Z,2.20
2022-09-20T04:54:07.507Z,2.40
2022-09-20T04:56:53.100Z,2.42
2022-09-20T04:59:40.071Z,2.42
2022-09-20T05:02:42.529Z,2.70
2022-09-20T05:05:40.509Z,2.58
2022-09-20T05:08:46.726Z,2.95
2022-09-20T05:14:48.355Z,2.72
2022-09-20T05:17:34.458Z,2.88
2022-09-20T05:20:23.159Z,3.15
2022-09-20T05:23:12.898Z,3.10
2022-09-20T05:25:59.680Z,2.90
2022-09-20T05:28:35.279Z,3.00
2022-09-20T05:31:10.966Z,3.13
2022-09-20T05:33:48.974Z,2.83
2022-09-20T05:36:25.599Z,2.75
2022-09-20T05:39:03.528Z,2.75
2022-09-20T05:41:42.262Z,2.90
2022-09-20T05:44:25.284Z,2.78
2022-09-20T05:49:40.872Z,2.17
2022-09-20T05:52:26.791Z,2.15
2022-09-20T05:55:26.559Z,2.50
2022-09-20T05:58:17.306Z,2.60
2022-09-20T06:00:52.974Z,2.38
2022-09-20T06:03:33.452Z,3.03
2022-09-20T06:06:09.667Z,2.30
2022-09-20T06:08:53.085Z,2.53
2022-09-20T06:11:46.461Z,2.47
2022-09-20T06:14:31.744Z,2.50
2022-09-20T06:17:11.677Z,2.72
2022-09-20T06:19:45.932Z,2.47
2022-09-20T06:22:20.631Z,2.58
2022-09-20T06:24:57.464Z,2.60
2022-09-20T06:27:32.498Z,2.63
2022-09-20T06:30:05.845Z,2.90
2022-09-20T06:32:34.797Z,3.42
2022-09-20T06:35:04.119Z,3.10
2022-09-20T06:38:14.452Z,3.28
2022-09-20T06:41:01.377Z,3.00
2022-09-20T06:43:31.514Z,3.05
2022-09-20T06:45:59.746Z,3.90
2022-09-20T06:48:31.610Z,4.20
2022-09-20T06:51:01.172Z,4.67
2022-09-20T06:53:30.971Z,4.25
2022-09-20T06:55:59.695Z,3.53
2022-09-20T06:58:28.385Z,3.03
2022-09-20T07:00:57.901Z,3.10
2022-09-20T07:03:26.163Z,2.88
2022-09-20T07:05:54.227Z,3.13
2022-09-20T07:08:22.532Z,2.38
2022-09-20T07:10:51.014Z,3.53
2022-09-20T07:13:19.377Z,3.63
2022-09-20T07:15:47.737Z,2.90
2022-09-20T07:18:17.309Z,2.17
2022-09-20T07:20:45.284Z,1.90
2022-09-20T07:23:15.689Z,1.67
2022-09-20T07:25:43.721Z,1.75
2022-09-20T07:28:11.739Z,1.30
2022-09-20T07:30:40.068Z,1.40
2022-09-20T07:33:12.048Z,1.38
2022-09-20T07:35:41.705Z,1.30
2022-09-20T07:38:10.376Z,1.30
2022-09-20T07:40:38.460Z,1.45
2022-09-20T07:43:06.815Z,1.40
2022-09-20T07:45:35.662Z,1.42
2022-09-20T07:48:05.356Z,1.20
2022-09-20T07:50:33.641Z,1.30
2022-09-20T07:53:04.803Z,1.65
2022-09-20T07:55:34.789Z,2.30
2022-09-20T07:58:02.852Z,2.42
2022-09-20T08:00:30.835Z,2.00
2022-09-20T08:03:00.395Z,2.30
2022-09-20T08:05:28.576Z,2.35
2022-09-20T08:07:56.765Z,1.92
2022-09-20T08:10:26.858Z,2.00
2022-09-20T08:15:43.684Z,2.25
2022-09-20T08:18:14.840Z,2.58
2022-09-20T08:20:43.078Z,3.47
2022-09-20T08:23:23.522Z,2.60
2022-09-20T08:25:53.539Z,2.78
2022-09-20T08:28:21.528Z,2.95
2022-09-20T08:30:49.590Z,2.92
2022-09-20T08:33:17.646Z,2.38
2022-09-20T08:35:49.451Z,2.50
2022-09-20T08:41:12.070Z,2.28
2022-09-20T08:43:45.607Z,1.88
2022-09-20T08:46:17.601Z,3.17
2022-09-20T08:48:52.180Z,3.63
2022-09-20T08:51:23.237Z,2.10
2022-09-20T08:53:54.179Z,2.28
2022-09-20T08:56:23.989Z,1.60
2022-09-20T08:58:53.327Z,1.63
2022-09-20T09:01:24.538Z,1.40
2022-09-20T09:03:53.108Z,1.35
2022-09-20T09:06:24.947Z,0.95
2022-09-20T09:08:53.430Z,1.10
2022-09-20T09:11:23.872Z,1.40
2022-09-20T09:13:56.413Z,1.00
2022-09-20T09:16:34.456Z,0.93
2022-09-20T09:19:33.247Z,1.38
2022-09-20T09:22:03.798Z,1.20
2022-09-20T09:24:32.554Z,1.20
2022-09-20T09:27:14.883Z,1.20
2022-09-20T09:29:50.827Z,1.40
2022-09-20T09:32:24.983Z,1.23
2022-09-20T09:34:53.067Z,1.20
2022-09-20T09:37:30.599Z,1.20
2022-09-20T09:40:16.429Z,1.10
2022-09-20T09:42:53.088Z,1.00
2022-09-20T09:45:31.856Z,1.10
2022-09-20T09:48:02.983Z,1.20
2022-09-20T09:50:35.032Z,1.20
2022-09-20T09:53:11.191Z,1.20
2022-09-20T09:56:14.857Z,0.90
2022-09-20T09:58:59.553Z,1.38
2022-09-20T10:01:39.753Z,1.83
2022-09-20T10:04:16.770Z,0.80
2022-09-20T10:06:54.598Z,1.00
2022-09-20T10:09:39.053Z,1.65
2022-09-20T10:12:20.745Z,1.70
2022-09-20T10:15:10.445Z,1.13
2022-09-20T10:17:56.313Z,1.10
2022-09-20T10:20:37.475Z,1.42
2022-09-20T10:23:45.123Z,1.20
2022-09-20T10:26:17.550Z,2.08
2022-09-20T10:29:00.162Z,1.00
2022-09-20T10:31:48.692Z,1.15
2022-09-20T10:34:43.024Z,1.13
2022-09-20T10:37:20.335Z,0.93
2022-09-20T10:39:58.920Z,0.95
2022-09-20T10:42:56.186Z,1.02
2022-09-20T10:46:03.859Z,0.75
2022-09-20T10:48:32.934Z,0.88
2022-09-20T10:51:08.185Z,0.95
2022-09-20T10:53:43.757Z,0.90
2022-09-20T10:56:24.399Z,0.93
2022-09-20T10:59:17.390Z,0.80
2022-09-20T11:01:59.746Z,0.82
2022-09-20T11:04:49.411Z,1.20
2022-09-20T11:07:20.338Z,0.80
2022-09-20T11:09:53.112Z,1.05
2022-09-20T11:12:27.826Z,0.77
2022-09-20T11:14:59.831Z,1.10
2022-09-20T11:17:33.656Z,0.70
2022-09-20T11:20:09.599Z,0.80
2022-09-20T11:22:44.048Z,1.20
2022-09-20T11:25:22.311Z,1.27
2022-09-20T11:27:56.752Z,1.15
2022-09-20T11:30:25.465Z,0.98
2022-09-20T11:32:58.018Z,1.40
2022-09-20T11:35:34.735Z,1.10
2022-09-20T11:38:11.987Z,1.15
2022-09-20T11:40:44.366Z,0.80
2022-09-20T11:43:15.799Z,1.05
2022-09-20T11:45:46.131Z,1.38
2022-09-20T11:48:20.977Z,1.02
2022-09-20T11:51:17.753Z,0.90
2022-09-20T11:54:16.862Z,0.90
2022-09-20T11:56:52.496Z,1.30
2022-09-20T11:59:30.699Z,1.33
2022-09-20T12:02:01.919Z,0.98
2022-09-20T12:04:34.092Z,1.30
2022-09-20T12:07:10.586Z,1.00
2022-09-20T12:09:44.349Z,1.20
2022-09-20T12:12:24.326Z,1.50
2022-09-20T12:14:57.283Z,1.70
2022-09-20T12:18:10.913Z,1.25
2022-09-20T12:23:46.101Z,0.88
2022-09-20T12:26:38.999Z,1.20
2022-09-20T12:29:53.112Z,1.52
2022-09-20T12:32:47.044Z,4.43
2022-09-20T12:36:00.669Z,1.67
2022-09-20T12:41:03.386Z,1.17
2022-09-20T12:43:34.651Z,0.80
2022-09-20T12:46:07.553Z,1.35
2022-09-20T12:48:39.241Z,0.95
2022-09-20T12:51:37.847Z,1.58
2022-09-20T12:54:08.987Z,1.40
2022-09-20T12:56:41.028Z,1.25
2022-09-20T12:59:23.263Z,1.40
2022-09-20T13:01:51.854Z,0.90
2022-09-20T13:04:42.489Z,1.02
2022-09-20T13:07:43.551Z,1.10
2022-09-20T13:10:25.483Z,0.82
2022-09-20T13:13:00.437Z,1.05
2022-09-20T13:15:28.754Z,0.98
2022-09-20T13:18:00.863Z,1.30
2022-09-20T13:20:31.566Z,1.25
2022-09-20T13:23:01.301Z,2.13
2022-09-20T13:25:29.962Z,0.90
2022-09-20T13:28:08.377Z,1.33
2022-09-20T13:30:36.761Z,0.77
2022-09-20T13:33:23.192Z,1.05
2022-09-20T13:35:54.584Z,0.95
2022-09-20T13:38:25.477Z,0.73
2022-09-20T13:41:02.477Z,1.00
2022-09-20T13:43:37.084Z,0.80
2022-09-20T13:46:12.192Z,1.00
2022-09-20T13:48:40.914Z,0.90
2022-09-20T13:51:19.314Z,1.20
2022-09-20T13:53:47.994Z,1.20
2022-09-20T13:56:21.790Z,1.33
2022-09-20T13:58:52.820Z,0.70
2022-09-20T14:01:29.432Z,1.10
2022-09-20T14:04:06.304Z,1.27
2022-09-20T14:06:37.537Z,1.15
2022-09-20T14:09:11.388Z,1.20
2022-09-20T14:11:41.039Z,1.10
2022-09-20T14:14:12.677Z,0.90
2022-09-20T14:16:45.108Z,0.98
2022-09-20T14:19:15.648Z,0.98
2022-09-20T14:21:44.774Z,1.02
2022-09-20T14:24:32.579Z,1.05
2022-09-20T14:27:20.497Z,1.10
2022-09-20T14:29:51.187Z,1.10
2022-09-20T14:32:28.181Z,1.02
2022-09-20T14:35:03.129Z,1.33
2022-09-20T14:37:33.879Z,1.20
2022-09-20T14:40:07.303Z,0.80
2022-09-20T14:42:37.998Z,1.02
2022-09-20T14:45:21.390Z,1.13
2022-09-20T14:48:05.673Z,0.98
2022-09-20T14:50:40.614Z,1.20
2022-09-20T14:53:26.748Z,1.45
2022-09-20T14:56:10.161Z,1.10
2022-09-20T14:59:07.620Z,1.30
2022-09-20T15:01:41.243Z,0.90
2022-09-20T15:04:11.736Z,0.90
2022-09-20T15:06:40.263Z,1.25
2022-09-20T15:09:08.368Z,0.80
2022-09-20T15:11:36.374Z,1.10
2022-09-20T15:14:04.429Z,0.70
2022-09-20T15:16:33.466Z,0.80
2022-09-20T15:19:02.944Z,1.40
2022-09-20T15:21:32.311Z,1.00
2022-09-20T15:24:00.419Z,0.88
2022-09-20T15:26:28.598Z,1.10
2022-09-20T15:28:56.563Z,0.85
2022-09-20T15:31:27.598Z,0.90
2022-09-20T15:33:55.942Z,1.00
2022-09-20T15:36:31.876Z,0.95
2022-09-20T15:39:02.652Z,0.95
2022-09-20T15:41:31.632Z,1.20
2022-09-20T15:44:01.579Z,0.77
2022-09-20T15:46:29.617Z,1.00
2022-09-20T15:48:58.218Z,0.95
2022-09-20T15:51:30.434Z,0.82
2022-09-20T15:54:00.256Z,0.90
2022-09-20T15:56:30.484Z,0.82
2022-09-20T15:59:00.962Z,0.85
2022-09-20T16:01:32.360Z,1.08
2022-09-20T16:04:01.299Z,1.00
2022-09-20T16:06:33.019Z,0.93
2022-09-20T16:09:01.071Z,1.35
2022-09-20T16:11:31.197Z,1.30
2022-09-20T16:14:00.608Z,1.20
2022-09-20T16:16:33.207Z,1.05
2022-09-20T16:19:20.173Z,2.28
2022-09-20T16:21:57.814Z,1.63
2022-09-20T16:24:28.099Z,2.00
2022-09-20T16:26:56.156Z,1.85
2022-09-20T16:29:25.715Z,1.70
2022-09-20T16:31:55.461Z,3.20
2022-09-20T16:34:29.847Z,1.40
2022-09-20T16:37:00.717Z,1.90
2022-09-20T16:39:29.805Z,1.50
2022-09-20T16:42:03.668Z,1.30
2022-09-20T16:44:32.477Z,1.80
2022-09-20T16:47:01.247Z,2.20
2022-09-20T16:49:29.966Z,2.78
2022-09-20T16:51:59.301Z,2.05
2022-09-20T16:54:31.638Z,1.40
2022-09-20T16:57:00.424Z,1.23
2022-09-20T16:59:28.652Z,1.02
2022-09-20T17:01:56.769Z,0.90
2022-09-20T17:04:24.868Z,0.70
2022-09-20T17:06:52.928Z,0.90
2022-09-20T17:09:22.409Z,1.20
2022-09-20T17:11:51.981Z,1.10
2022-09-20T17:14:21.933Z,1.10
2022-09-20T17:16:50.475Z,1.08
2022-09-20T17:19:20.466Z,1.00
2022-09-20T17:21:50.873Z,1.00
2022-09-20T17:24:20.455Z,1.25
2022-09-20T17:26:51.780Z,1.17
2022-09-20T17:29:21.168Z,1.30
2022-09-20T17:31:55.542Z,1.48
2022-09-20T17:34:25.541Z,1.30
2022-09-20T17:36:55.209Z,1.25
2022-09-20T17:39:23.409Z,1.10
2022-09-20T17:41:55.071Z,1.40
2022-09-20T17:44:24.072Z,1.52
2022-09-20T17:46:54.156Z,1.80
2022-09-20T17:49:23.974Z,2.40
2022-09-20T17:51:53.312Z,1.88
2022-09-20T17:54:22.116Z,1.45
2022-09-20T17:56:52.439Z,1.67
2022-09-20T17:59:22.202Z,1.70
2022-09-20T18:01:51.719Z,1.58
2022-09-20T18:04:21.842Z,1.80
2022-09-20T18:06:51.249Z,1.40
2022-09-20T18:09:21.474Z,1.30
2022-09-20T18:11:50.853Z,1.00
2022-09-20T18:14:20.438Z,1.08
2022-09-20T18:16:52.892Z,1.38
2022-09-20T18:19:22.663Z,1.58
2022-09-20T18:21:50.950Z,1.50
2022-09-20T18:24:19.161Z,1.10
2022-09-20T18:26:47.288Z,1.10
2022-09-20T18:29:18.027Z,1.17
2022-09-20T18:31:49.970Z,1.70
2022-09-20T18:34:20.099Z,1.70
2022-09-20T18:36:52.644Z,1.95
2022-09-20T18:39:21.861Z,1.67
2022-09-20T18:41:50.746Z,1.77
2022-09-20T18:44:19.486Z,1.40
2022-09-20T18:46:49.537Z,1.38
2022-09-20T18:49:17.892Z,1.58
2022-09-20T18:51:47.483Z,1.60
2022-09-20T18:54:16.120Z,1.83
2022-09-20T18:56:45.936Z,1.92
2022-09-20T18:59:16.798Z,2.10
2022-09-20T19:02:02.435Z,2.40
2022-09-20T19:05:00.127Z,2.22
2022-09-20T19:07:39.325Z,1.75
2022-09-20T19:10:15.128Z,1.92
2022-09-20T19:12:50.593Z,1.83
2022-09-20T19:15:40.184Z,1.65
2022-09-20T19:18:36.634Z,1.60
2022-09-20T19:21:17.698Z,1.50
2022-09-20T19:24:02.413Z,1.63
2022-09-20T19:26:32.761Z,1.35
2022-09-20T19:29:02.223Z,1.40
2022-09-20T19:31:32.557Z,1.40
2022-09-20T19:34:05.943Z,1.30
2022-09-20T19:36:41.712Z,1.10
2022-09-20T19:39:15.770Z,1.25
2022-09-20T19:41:53.946Z,1.42
2022-09-20T19:44:37.160Z,1.10
2022-09-20T19:47:23.758Z,1.25
2022-09-20T19:49:55.617Z,1.35
2022-09-20T19:52:24.732Z,1.38
2022-09-20T19:54:53.243Z,1.20
2022-09-20T19:57:23.824Z,1.50
2022-09-20T19:59:52.632Z,1.70
2022-09-20T20:02:21.166Z,2.10
2022-09-20T20:04:49.772Z,1.73
2022-09-20T20:07:30.672Z,2.50
2022-09-20T20:10:10.032Z,2.20
2022-09-20T20:12:46.790Z,2.20
2022-09-20T20:15:22.837Z,1.75
2022-09-20T20:17:57.666Z,1.85
2022-09-20T20:20:33.916Z,1.58
2022-09-20T20:23:29.511Z,1.95
2022-09-20T20:26:03.423Z,1.52
2022-09-20T20:28:33.828Z,1.30
2022-09-20T20:31:02.372Z,1.40
2022-09-20T20:33:32.077Z,1.73
2022-09-20T20:36:02.090Z,1.50
2022-09-20T20:38:37.287Z,1.48
2022-09-20T20:41:07.539Z,2.03
2022-09-20T20:43:37.540Z,1.40
2022-09-20T20:46:07.719Z,1.50
2022-09-20T20:48:36.952Z,1.65
2022-09-20T20:51:08.035Z,1.67
2022-09-20T20:53:41.590Z,1.67
2022-09-20T20:56:12.273Z,1.80
2022-09-20T20:58:41.835Z,2.13
2022-09-20T21:01:12.296Z,2.42
2022-09-20T21:03:41.676Z,2.03
2022-09-20T21:06:10.742Z,2.22
2022-09-20T21:08:43.847Z,2.03
2022-09-20T21:11:18.219Z,3.00
2022-09-20T21:13:48.410Z,1.90
2022-09-20T21:16:18.011Z,2.10
2022-09-20T21:18:47.921Z,2.00
2022-09-20T21:21:20.266Z,2.08
2022-09-20T21:23:51.811Z,1.92
2022-09-20T21:26:20.885Z,1.88
2022-09-20T21:28:52.327Z,1.77
2022-09-20T21:31:21.954Z,1.83
2022-09-20T21:33:50.153Z,1.85
2022-09-20T21:36:20.119Z,2.05
2022-09-20T21:38:49.942Z,2.10
2022-09-20T21:41:19.914Z,1.55
2022-09-20T21:43:50.478Z,1.80
2022-09-20T21:46:19.993Z,1.60
2022-09-20T21:48:49.178Z,1.52
2022-09-20T21:51:18.733Z,1.60
2022-09-20T21:53:47.053Z,1.80
2022-09-20T21:56:18.409Z,1.85
2022-09-20T21:58:47.071Z,1.55
2022-09-20T22:01:19.318Z,1.77
2022-09-20T22:03:49.260Z,1.48
2022-09-20T22:06:19.143Z,1.65
2022-09-20T22:08:50.534Z,1.70
2022-09-20T22:11:21.970Z,1.58
2022-09-20T22:13:51.910Z,1.30
2022-09-20T22:16:22.431Z,1.67
2022-09-20T22:18:50.923Z,1.77
2022-09-20T22:21:23.369Z,1.65
2022-09-20T22:23:57.669Z,1.63
2022-09-20T22:26:30.197Z,1.50
2022-09-20T22:28:59.160Z,1.50
2022-09-20T22:31:30.055Z,1.60
2022-09-20T22:34:00.196Z,1.63
2022-09-20T22:36:31.526Z,1.92
2022-09-20T22:39:00.243Z,1.55
2022-09-20T22:41:30.359Z,1.60
2022-09-20T22:43:58.875Z,1.60
2022-09-20T22:46:30.199Z,1.50
2022-09-20T22:49:01.246Z,1.65
2022-09-20T22:51:33.332Z,1.63
2022-09-20T22:54:02.321Z,1.37
2022-09-20T22:56:33.198Z,1.60
2022-09-20T22:59:05.126Z,1.80
2022-09-20T23:01:35.652Z,1.30
2022-09-20T23:04:07.806Z,1.50
2022-09-20T23:06:38.373Z,1.50
2022-09-20T23:09:09.811Z,1.90
2022-09-20T23:11:42.102Z,1.52
2022-09-20T23:14:12.987Z,1.40
2022-09-20T23:16:41.782Z,1.38
2022-09-20T23:19:13.422Z,1.45
2022-09-20T23:21:43.760Z,1.73
2022-09-20T23:24:13.545Z,1.40
2022-09-20T23:26:44.710Z,1.55
2022-09-20T23:29:15.846Z,2.08
2022-09-20T23:31:46.766Z,1.77
2022-09-20T23:34:17.571Z,1.75
2022-09-20T23:36:46.741Z,1.60
2022-09-20T23:39:15.857Z,1.40
2022-09-20T23:41:50.673Z,1.70
2022-09-20T23:44:19.854Z,1.65
2022-09-20T23:46:48.243Z,1.73
2022-09-20T23:49:16.763Z,2.00
2022-09-20T23:51:45.241Z,1.95
2022-09-20T23:54:13.920Z,1.73
2022-09-20T23:56:42.868Z,1.60
2022-09-20T23:59:12.715Z,1.80
